createdAt,value
2023-02-17T00:02:28.933Z,100916.69
2023-02-17T00:05:30.827Z,100916.53
2023-02-17T00:08:32.494Z,100908.63
2023-02-17T00:11:34.310Z,100917.75
2023-02-17T00:14:38.863Z,100915.75
2023-02-17T00:17:40.594Z,100918.63
2023-02-17T00:20:43.186Z,100914.03
2023-02-17T00:23:46.804Z,100911.13
2023-02-17T00:26:48.987Z,100904.78
2023-02-17T00:29:50.794Z,100906.53
2023-02-17T00:32:52.721Z,100906.53
2023-02-17T00:35:54.824Z,100902.69
2023-02-17T00:38:57.226Z,100904.53
2023-02-17T00:41:58.997Z,100902.69
2023-02-17T00:45:04.888Z,100907.47
2023-02-17T00:48:07.220Z,100911.81
2023-02-17T00:51:09.783Z,100903.56
2023-02-17T00:54:12.229Z,100911.28
2023-02-17T00:57:14.003Z,100896.13
2023-02-17T01:00:16.508Z,100895.19
2023-02-17T01:03:19.774Z,100893.91
2023-02-17T01:06:27.570Z,100885.97
2023-02-17T01:09:29.341Z,100897.75
2023-02-17T01:12:31.090Z,100895.38
2023-02-17T01:15:38.408Z,100891.88
2023-02-17T01:18:39.997Z,100884.06
2023-02-17T01:21:41.662Z,100878.59
2023-02-17T01:24:45.798Z,100880.38
2023-02-17T01:27:47.726Z,100883.41
2023-02-17T01:30:50.522Z,100872.34
2023-02-17T01:33:52.152Z,100860.50
2023-02-17T01:36:54.436Z,100856.97
2023-02-17T01:39:56.204Z,100844.28
2023-02-17T01:42:58.180Z,100851.28
2023-02-17T01:46:02.079Z,100856.97
2023-02-17T01:49:17.329Z,100836.28
2023-02-17T01:52:26.453Z,100833.31
2023-02-17T01:55:29.587Z,100816.22
2023-02-17T01:58:32.872Z,100825.84
2023-02-17T02:01:35.470Z,100814.13
2023-02-17T02:04:41.110Z,100814.47
2023-02-17T02:07:46.202Z,100814.47
2023-02-17T02:10:47.853Z,100804.47
2023-02-17T02:13:51.133Z,100806.03
2023-02-17T02:17:17.812Z,100801.09
2023-02-17T02:20:38.096Z,100801.28
2023-02-17T02:23:58.785Z,100797.19
2023-02-17T02:27:29.714Z,100798.41
2023-02-17T02:30:32.221Z,100789.25
2023-02-17T02:34:04.754Z,100796.59
2023-02-17T02:37:25.092Z,100786.91
2023-02-17T02:40:32.065Z,100787.72
2023-02-17T02:43:34.224Z,100793.53
2023-02-17T02:46:36.156Z,100783.09
2023-02-17T02:49:37.894Z,100768.16
2023-02-17T02:53:01.156Z,100752.03
2023-02-17T02:56:28.240Z,100750.00
2023-02-17T02:59:52.842Z,100748.38
2023-02-17T03:03:03.652Z,100735.78
2023-02-17T03:06:15.429Z,100748.25
2023-02-17T03:09:28.565Z,100730.41
2023-02-17T03:12:30.330Z,100734.75
2023-02-17T03:15:34.830Z,100738.44
2023-02-17T03:18:36.977Z,100735.56
2023-02-17T03:21:43.854Z,100738.06
2023-02-17T03:24:45.758Z,100737.44
2023-02-17T03:27:47.613Z,100729.88
2023-02-17T03:30:50.099Z,100730.19
2023-02-17T03:33:51.850Z,100727.94
2023-02-17T03:36:53.842Z,100733.94
2023-02-17T03:39:55.480Z,100733.09
2023-02-17T03:42:57.982Z,100742.19
2023-02-17T03:45:59.650Z,100724.03
2023-02-17T03:49:01.230Z,100720.50
2023-02-17T03:52:03.089Z,100696.84
2023-02-17T03:55:06.482Z,100700.69
2023-02-17T03:58:08.336Z,100708.44
2023-02-17T04:01:11.934Z,100704.81
2023-02-17T04:04:13.739Z,100704.59
2023-02-17T04:07:15.529Z,100705.63
2023-02-17T04:10:17.823Z,100712.25
2023-02-17T04:13:19.823Z,100703.25
2023-02-17T04:16:21.488Z,100693.88
2023-02-17T04:19:23.257Z,100695.53
2023-02-17T04:22:25.049Z,100700.69
2023-02-17T04:25:26.702Z,100720.38
2023-02-17T04:28:29.180Z,100707.31
2023-02-17T04:31:31.073Z,100710.06
2023-02-17T04:34:32.927Z,100713.38
2023-02-17T04:37:34.638Z,100713.50
2023-02-17T04:40:37.716Z,100705.84
2023-02-17T04:43:39.426Z,100695.97
2023-02-17T04:46:41.150Z,100688.63
2023-02-17T04:49:42.905Z,100690.47
2023-02-17T04:52:44.768Z,100690.06
2023-02-17T04:55:53.469Z,100690.97
2023-02-17T04:58:55.164Z,100696.25
2023-02-17T05:01:56.992Z,100688.09
2023-02-17T05:04:58.731Z,100690.69
2023-02-17T05:08:01.292Z,100692.22
2023-02-17T05:11:03.110Z,100688.81
2023-02-17T05:14:04.662Z,100685.31
2023-02-17T05:17:06.453Z,100681.91
2023-02-17T05:20:09.184Z,100671.59
2023-02-17T05:23:10.943Z,100661.91
2023-02-17T05:26:13.076Z,100660.44
2023-02-17T05:29:15.262Z,100646.69
2023-02-17T05:32:18.453Z,100643.81
2023-02-17T05:35:20.523Z,100633.88
2023-02-17T05:38:22.288Z,100632.72
2023-02-17T05:41:24.132Z,100638.69
2023-02-17T05:44:26.118Z,100620.94
2023-02-17T05:47:28.259Z,100613.47
2023-02-17T05:50:30.084Z,100603.41
2023-02-17T05:53:37.783Z,100602.16
2023-02-17T05:56:39.678Z,100580.66
2023-02-17T05:59:41.461Z,100586.13
2023-02-17T06:02:43.506Z,100567.75
2023-02-17T06:05:46.045Z,100579.03
2023-02-17T06:08:47.698Z,100576.75
2023-02-17T06:11:49.917Z,100573.22
2023-02-17T06:14:52.099Z,100607.19
2023-02-17T06:17:53.744Z,100579.03
2023-02-17T06:20:57.312Z,100587.31
2023-02-17T06:23:59.215Z,100579.28
2023-02-17T06:27:01.914Z,100586.69
2023-02-17T06:30:04.001Z,100584.72
2023-02-17T06:33:05.733Z,100573.59
2023-02-17T06:36:08.256Z,100570.06
2023-02-17T06:39:10.088Z,100564.66
2023-02-17T06:42:11.902Z,100569.81
2023-02-17T06:45:13.623Z,100559.75
2023-02-17T06:48:15.389Z,100561.03
2023-02-17T06:51:17.083Z,100556.22
2023-02-17T06:54:18.924Z,100536.38
2023-02-17T06:57:20.931Z,100558.19
2023-02-17T07:00:23.228Z,100560.56
2023-02-17T07:03:24.923Z,100567.16
2023-02-17T07:06:27.249Z,100589.34
2023-02-17T07:09:29.001Z,100569.31
2023-02-17T07:12:30.838Z,100557.91
2023-02-17T07:15:32.417Z,100560.38
2023-02-17T07:18:34.432Z,100559.78
2023-02-17T07:21:37.338Z,100579.03
2023-02-17T07:24:39.006Z,100567.78
2023-02-17T07:27:41.923Z,100567.97
2023-02-17T07:30:44.650Z,100527.91
2023-02-17T07:33:50.154Z,100533.09
2023-02-17T07:36:51.893Z,100536.75
2023-02-17T07:39:53.926Z,100523.25
2023-02-17T07:42:57.453Z,100523.03
2023-02-17T07:45:59.603Z,100516.09
2023-02-17T07:49:01.272Z,100528.91
2023-02-17T07:52:05.196Z,100511.88
2023-02-17T07:55:07.432Z,100515.50
2023-02-17T07:58:09.209Z,100510.44
2023-02-17T08:01:22.661Z,100511.88
2023-02-17T08:04:24.323Z,100511.41
2023-02-17T08:07:26.472Z,100511.41
2023-02-17T08:10:46.810Z,100511.88
2023-02-17T08:13:48.953Z,100502.72
2023-02-17T08:16:50.958Z,100507.91
2023-02-17T08:19:52.698Z,100503.78
2023-02-17T08:22:54.401Z,100511.09
2023-02-17T08:26:01.978Z,100506.59
2023-02-17T08:29:03.901Z,100498.25
2023-02-17T08:32:06.231Z,100489.44
2023-02-17T08:35:08.186Z,100492.84
2023-02-17T08:38:09.977Z,100486.03
2023-02-17T08:41:16.026Z,100486.63
2023-02-17T08:44:20.903Z,100486.72
2023-02-17T08:47:22.806Z,100476.50
2023-02-17T08:50:24.540Z,100465.00
2023-02-17T08:53:26.380Z,100461.84
2023-02-17T08:56:28.623Z,100460.06
2023-02-17T08:59:30.454Z,100463.09
2023-02-17T09:02:32.323Z,100471.22
2023-02-17T09:05:35.282Z,100463.09
2023-02-17T09:08:39.173Z,100453.34
2023-02-17T09:11:41.160Z,100458.84
2023-02-17T09:14:43.155Z,100467.34
2023-02-17T09:17:45.358Z,100465.44
2023-02-17T09:20:48.173Z,100465.19
2023-02-17T09:23:50.446Z,100464.03
2023-02-17T09:26:52.230Z,100467.19
2023-02-17T09:29:54.045Z,100471.31
2023-02-17T09:32:55.987Z,100461.44
2023-02-17T09:35:57.843Z,100455.66
2023-02-17T09:38:59.987Z,100458.22
2023-02-17T09:42:01.910Z,100473.84
2023-02-17T09:45:26.398Z,100458.16
2023-02-17T09:48:31.857Z,100464.88
2023-02-17T09:51:39.182Z,100458.31
2023-02-17T09:54:58.826Z,100481.47
2023-02-17T09:58:34.699Z,100471.09
2023-02-17T10:01:37.391Z,100451.34
2023-02-17T10:04:51.093Z,100451.81
2023-02-17T10:08:08.364Z,100451.09
2023-02-17T10:11:30.067Z,100456.41
2023-02-17T10:15:04.266Z,100443.00
2023-02-17T10:18:26.438Z,100429.25
2023-02-17T10:21:38.179Z,100424.97
2023-02-17T10:24:40.098Z,100409.75
2023-02-17T10:27:45.863Z,100410.09
2023-02-17T10:30:59.216Z,100417.47
2023-02-17T10:34:36.089Z,100429.34
2023-02-17T10:37:54.956Z,100433.03
2023-02-17T10:40:56.935Z,100436.28
2023-02-17T10:44:00.847Z,100432.19
2023-02-17T10:47:05.290Z,100415.78
2023-02-17T10:50:22.498Z,100407.03
2023-02-17T10:53:28.314Z,100398.81
2023-02-17T10:56:39.933Z,100384.44
2023-02-17T10:59:44.857Z,100376.50
2023-02-17T11:02:50.408Z,100372.06
2023-02-17T11:05:58.509Z,100363.59
2023-02-17T11:09:37.926Z,100365.16
2023-02-17T11:12:41.596Z,100379.88
2023-02-17T11:15:46.119Z,100372.94
2023-02-17T11:18:49.847Z,100370.38
2023-02-17T11:21:56.758Z,100364.91
2023-02-17T11:25:26.215Z,100363.00
2023-02-17T11:28:28.792Z,100330.22
2023-02-17T11:31:31.815Z,100317.91
2023-02-17T11:34:37.003Z,100341.16
2023-02-17T11:37:43.324Z,100337.72
2023-02-17T11:41:02.959Z,100353.28
2023-02-17T11:44:05.117Z,100320.22
2023-02-17T11:47:13.484Z,100316.41
2023-02-17T11:50:41.713Z,100308.19
2023-02-17T11:54:08.266Z,100307.66
2023-02-17T11:57:29.420Z,100337.06
2023-02-17T12:00:43.778Z,100307.41
2023-02-17T12:03:54.223Z,100310.81
2023-02-17T12:07:20.358Z,100329.53
2023-02-17T12:11:10.211Z,100293.34
2023-02-17T12:14:34.579Z,100301.47
2023-02-17T12:17:55.470Z,100309.00
2023-02-17T12:21:03.022Z,100319.81
2023-02-17T12:24:41.918Z,100324.47
2023-02-17T12:27:58.994Z,100329.38
2023-02-17T12:31:21.555Z,100325.00
2023-02-17T12:34:55.376Z,100328.72
2023-02-17T12:38:12.229Z,100333.91
2023-02-17T12:41:21.057Z,100351.94
2023-02-17T12:44:26.770Z,100350.03
2023-02-17T12:47:49.965Z,100382.38
2023-02-17T12:51:10.541Z,100368.44
2023-02-17T12:54:18.805Z,100364.44
2023-02-17T12:57:58.558Z,100359.91
2023-02-17T13:01:09.202Z,100351.19
2023-02-17T13:04:23.601Z,100343.00
2023-02-17T13:07:51.127Z,100367.00
2023-02-17T13:11:29.278Z,100364.13
2023-02-17T13:14:52.674Z,100347.88
2023-02-17T13:18:13.489Z,100341.50
2023-02-17T13:21:22.948Z,100355.78
2023-02-17T13:24:33.253Z,100371.50
2023-02-17T13:27:37.923Z,100388.25
2023-02-17T13:30:42.852Z,100391.66
2023-02-17T13:33:53.650Z,100408.28
2023-02-17T13:36:56.036Z,100414.63
2023-02-17T13:39:58.852Z,100437.19
2023-02-17T13:43:19.706Z,100443.13
2023-02-17T13:46:26.449Z,100432.91
2023-02-17T13:49:32.994Z,100473.66
2023-02-17T13:52:34.930Z,100435.28
2023-02-17T13:55:36.801Z,100432.03
2023-02-17T13:58:41.593Z,100432.25
2023-02-17T14:01:44.538Z,100422.59
2023-02-17T14:04:46.711Z,100438.56
2023-02-17T14:07:49.411Z,100432.56
2023-02-17T14:10:51.622Z,100422.53
2023-02-17T14:13:57.051Z,100432.25
2023-02-17T14:17:02.299Z,100444.03
2023-02-17T14:20:04.585Z,100448.44
2023-02-17T14:23:11.573Z,100472.78
2023-02-17T14:26:43.821Z,100445.13
2023-02-17T14:29:50.652Z,100450.91
2023-02-17T14:33:01.734Z,100464.66
2023-02-17T14:36:09.070Z,100468.22
2023-02-17T14:39:14.833Z,100450.66
2023-02-17T14:42:16.955Z,100434.16
2023-02-17T14:45:19.767Z,100457.59
2023-02-17T14:48:21.533Z,100441.25
2023-02-17T14:51:26.682Z,100453.59
2023-02-17T14:54:30.521Z,100443.16
2023-02-17T14:57:32.379Z,100462.41
2023-02-17T15:00:34.430Z,100459.22
2023-02-17T15:03:36.098Z,100446.00
2023-02-17T15:06:49.518Z,100435.75
2023-02-17T15:09:51.199Z,100475.66
2023-02-17T15:12:53.627Z,100456.88
2023-02-17T15:15:55.586Z,100485.91
2023-02-17T15:18:57.896Z,100463.31
2023-02-17T15:22:03.828Z,100459.66
2023-02-17T15:25:16.212Z,100463.06
2023-02-17T15:28:20.098Z,100476.97
2023-02-17T15:31:22.144Z,100456.63
2023-02-17T15:34:31.088Z,100489.81
2023-02-17T15:37:32.873Z,100482.53
2023-02-17T15:40:34.693Z,100483.41
2023-02-17T15:46:40.272Z,100489.53
2023-02-17T15:49:42.051Z,100503.53
2023-02-17T15:52:45.519Z,100539.75
2023-02-17T15:55:47.960Z,100520.94
2023-02-17T15:58:51.199Z,100537.03
2023-02-17T16:01:56.066Z,100525.50
2023-02-17T16:04:57.851Z,100514.00
2023-02-17T16:07:59.502Z,100529.88
2023-02-17T16:11:01.301Z,100512.72
2023-02-17T16:14:03.066Z,100529.53
2023-02-17T16:17:05.366Z,100543.88
2023-02-17T16:20:15.922Z,100559.75
2023-02-17T16:23:17.912Z,100550.13
2023-02-17T16:26:35.674Z,100544.00
2023-02-17T16:29:37.622Z,100534.47
2023-02-17T16:32:39.464Z,100553.78
2023-02-17T16:35:42.805Z,100536.00
2023-02-17T16:38:45.249Z,100557.84
2023-02-17T16:41:48.051Z,100561.50
2023-02-17T16:44:50.369Z,100556.44
2023-02-17T16:47:55.264Z,100557.97
2023-02-17T16:50:57.530Z,100534.56
2023-02-17T16:53:59.313Z,100543.50
2023-02-17T16:57:01.431Z,100541.38
2023-02-17T17:00:04.510Z,100536.94
2023-02-17T17:03:06.511Z,100548.94
2023-02-17T17:06:26.491Z,100530.59
2023-02-17T17:09:29.176Z,100560.09
2023-02-17T17:12:31.032Z,100552.00
2023-02-17T17:15:37.023Z,100559.50
2023-02-17T17:18:40.101Z,100557.78
2023-02-17T17:21:42.146Z,100559.06
2023-02-17T17:24:44.491Z,100553.41
2023-02-17T17:27:46.601Z,100583.41
2023-02-17T17:30:49.730Z,100566.34
2023-02-17T17:33:52.026Z,100573.38
2023-02-17T17:36:53.765Z,100603.47
2023-02-17T17:39:55.344Z,100636.25
2023-02-17T17:42:57.249Z,100640.34
2023-02-17T17:45:58.931Z,100675.66
2023-02-17T17:49:01.753Z,100692.16
2023-02-17T17:52:03.718Z,100709.38
2023-02-17T17:55:06.293Z,100707.13
2023-02-17T17:58:08.307Z,100718.84
2023-02-17T18:01:11.528Z,100744.34
2023-02-17T18:04:13.757Z,100720.56
2023-02-17T18:07:16.280Z,100730.78
2023-02-17T18:10:18.575Z,100721.63
2023-02-17T18:13:20.883Z,100747.63
2023-02-17T18:16:25.656Z,100742.97
2023-02-17T18:19:29.947Z,100769.97
2023-02-17T18:22:31.657Z,100753.75
2023-02-17T18:25:33.872Z,100761.66
2023-02-17T18:28:35.581Z,100768.19
2023-02-17T18:31:37.822Z,100769.31
2023-02-17T18:34:40.117Z,100767.13
2023-02-17T18:37:42.002Z,100769.19
2023-02-17T18:40:43.755Z,100751.22
2023-02-17T18:43:45.972Z,100758.41
2023-02-17T18:46:50.018Z,100774.06
2023-02-17T18:49:52.671Z,100764.91
2023-02-17T18:52:57.308Z,100770.81
2023-02-17T18:56:00.531Z,100769.22
2023-02-17T18:59:04.163Z,100782.31
2023-02-17T19:02:07.620Z,100776.72
2023-02-17T19:05:11.609Z,100782.91
2023-02-17T19:08:13.738Z,100777.31
2023-02-17T19:11:18.268Z,100785.63
2023-02-17T19:14:20.425Z,100790.78
2023-02-17T19:17:24.207Z,100789.25
2023-02-17T19:20:28.243Z,100800.22
2023-02-17T19:23:32.085Z,100794.09
2023-02-17T19:26:35.831Z,100787.38
2023-02-17T19:29:38.717Z,100789.31
2023-02-17T19:32:40.777Z,100788.25
2023-02-17T19:35:44.302Z,100802.28
2023-02-17T19:38:47.549Z,100799.72
2023-02-17T19:41:49.517Z,100812.59
2023-02-17T19:44:51.255Z,100822.44
2023-02-17T19:47:54.849Z,100824.19
2023-02-17T19:51:03.245Z,100831.91
2023-02-17T19:54:05.496Z,100837.59
2023-02-17T19:57:07.340Z,100842.00
2023-02-17T20:00:10.074Z,100838.25
2023-02-17T20:03:11.683Z,100848.34
2023-02-17T20:06:19.458Z,100856.38
2023-02-17T20:09:23.852Z,100842.84
2023-02-17T20:12:25.809Z,100853.69
2023-02-17T20:15:28.522Z,100862.03
2023-02-17T20:18:30.356Z,100863.31
2023-02-17T20:21:34.849Z,100867.91
2023-02-17T20:24:36.886Z,100850.25
2023-02-17T20:27:39.726Z,100866.00
2023-02-17T20:30:48.905Z,100873.09
2023-02-17T20:33:51.132Z,100875.94
2023-02-17T20:36:53.134Z,100887.22
2023-02-17T20:39:55.071Z,100893.38
2023-02-17T20:42:58.245Z,100887.28
2023-02-17T20:46:01.585Z,100885.41
2023-02-17T20:49:03.607Z,100892.56
2023-02-17T20:52:05.815Z,100886.19
2023-02-17T20:55:07.730Z,100908.06
2023-02-17T20:58:11.068Z,100903.50
2023-02-17T21:01:13.321Z,100908.81
2023-02-17T21:04:16.083Z,100910.06
2023-02-17T21:07:18.061Z,100909.31
2023-02-17T21:10:23.027Z,100929.41
2023-02-17T21:13:24.952Z,100916.78
2023-02-17T21:16:35.436Z,100905.88
2023-02-17T21:19:37.524Z,100911.53
2023-02-17T21:22:39.427Z,100914.84
2023-02-17T21:25:41.376Z,100927.72
2023-02-17T21:28:43.973Z,100927.25
2023-02-17T21:31:45.769Z,100932.41
2023-02-17T21:34:47.832Z,100937.53
2023-02-17T21:37:50.520Z,100943.34
2023-02-17T21:40:52.316Z,100947.53
2023-02-17T21:44:13.776Z,100942.41
2023-02-17T21:47:15.753Z,100950.72
2023-02-17T21:50:18.401Z,100938.22
2023-02-17T21:53:19.946Z,100940.34
2023-02-17T21:56:22.840Z,100949.25
2023-02-17T21:59:24.569Z,100961.03
2023-02-17T22:02:26.387Z,100966.59
2023-02-17T22:05:32.412Z,100971.16
2023-02-17T22:08:34.114Z,100970.47
2023-02-17T22:11:38.853Z,100965.09
2023-02-17T22:14:40.609Z,100978.84
2023-02-17T22:17:44.051Z,100967.88
2023-02-17T22:20:45.686Z,100973.28
2023-02-17T22:23:47.731Z,100966.41
2023-02-17T22:26:50.302Z,100978.59
2023-02-17T22:29:52.029Z,100993.75
2023-02-17T22:32:53.630Z,100989.34
2023-02-17T22:36:12.965Z,100986.34
2023-02-17T22:39:15.350Z,100985.53
2023-02-17T22:42:16.951Z,100988.63
2023-02-17T22:45:18.810Z,100982.84
2023-02-17T22:48:20.920Z,100987.63
2023-02-17T22:51:33.775Z,100993.94
2023-02-17T22:54:35.644Z,100984.78
2023-02-17T22:57:37.432Z,100984.13
2023-02-17T23:00:40.179Z,100996.09
2023-02-17T23:03:42.944Z,100995.16
2023-02-17T23:06:46.242Z,100991.44
2023-02-17T23:09:48.348Z,100988.69
2023-02-17T23:12:50.338Z,100988.44
2023-02-17T23:15:52.319Z,100989.22
2023-02-17T23:18:54.547Z,100989.53
2023-02-17T23:21:59.689Z,100985.97
2023-02-17T23:25:01.484Z,101002.22
2023-02-17T23:28:05.930Z,100998.44
2023-02-17T23:31:12.186Z,100999.06
2023-02-17T23:34:16.155Z,100993.75
2023-02-17T23:37:17.843Z,100981.56
2023-02-17T23:40:20.452Z,100983.13
2023-02-17T23:43:22.342Z,100981.31
2023-02-17T23:46:24.111Z,100986.16
2023-02-17T23:49:25.897Z,100981.00
2023-02-17T23:52:27.505Z,100987.91
2023-02-17T23:55:29.306Z,100983.66
2023-02-17T23:58:31.398Z,100980.84
